Grimstead, Virginia
Current Conditions -  °F | °C
As of 2:35 PM on Saturday 25 Oct 2014 (Local Time) from KW75 Reporting Station
Clear Clear  
Wind Chill: 68°   Ceiling: Unl
Heat Index: 68°   Visibility: 10mi
Dew Point: 43°   Wind: 3mph
Humidity: 40%   Direction: 330°NNW
Pressure: 29.86"   Gusts: NA
Location:  37.5°N, 76.3°W
Report Text: KW75 251835Z AUTO 33003KT 10SM CLR 20/06 A2986 RMK AO1 T02020063
Loading
Personal Weather Stations






























Interactive Weather Map
Tropical Storm Tracking
New forecast layout! Learn more

10-Day Weather Forecast

Advertisements
Track Severe Weather on mobile